createdAt,value
2022-12-22T00:02:34.600Z,10.25
2022-12-22T00:05:59.655Z,10.23
2022-12-22T00:09:24.909Z,10.18
2022-12-22T00:12:50.176Z,10.15
2022-12-22T00:16:15.469Z,10.14
2022-12-22T00:19:40.708Z,10.11
2022-12-22T00:23:05.967Z,10.07
2022-12-22T00:26:31.233Z,10.02
2022-12-22T00:29:56.539Z,10.01
2022-12-22T00:33:21.782Z,10.01
2022-12-22T00:36:47.037Z,9.98
2022-12-22T00:40:12.290Z,9.94
2022-12-22T00:43:37.578Z,9.89
2022-12-22T00:47:02.861Z,9.82
2022-12-22T00:50:28.075Z,9.75
2022-12-22T00:53:53.358Z,9.66
2022-12-22T00:57:18.618Z,9.59
2022-12-22T01:00:43.853Z,9.53
2022-12-22T01:04:09.151Z,9.46
2022-12-22T01:07:34.389Z,9.42
2022-12-22T01:10:59.636Z,9.41
2022-12-22T01:14:24.860Z,9.4
2022-12-22T01:17:50.095Z,9.39
2022-12-22T01:21:15.376Z,9.38
2022-12-22T01:24:40.592Z,9.38
2022-12-22T01:28:05.874Z,9.36
2022-12-22T01:31:31.127Z,9.39
2022-12-22T01:34:56.351Z,9.4
2022-12-22T01:38:21.635Z,9.42
2022-12-22T01:41:46.845Z,9.41
2022-12-22T01:45:12.088Z,9.43
2022-12-22T01:48:37.335Z,9.42
2022-12-22T01:52:02.589Z,9.39
2022-12-22T01:55:27.853Z,9.39
2022-12-22T01:58:53.061Z,9.37
2022-12-22T02:02:18.396Z,9.36
2022-12-22T02:05:43.552Z,9.31
2022-12-22T02:09:08.785Z,9.25
2022-12-22T02:12:34.050Z,9.26
2022-12-22T02:15:59.351Z,9.26
2022-12-22T02:19:24.522Z,9.26
2022-12-22T02:22:49.758Z,9.21
2022-12-22T02:26:14.992Z,9.2
2022-12-22T02:29:40.279Z,9.21
2022-12-22T02:33:09.763Z,9.22
2022-12-22T02:36:30.715Z,9.26
2022-12-22T02:39:55.935Z,9.31
2022-12-22T02:43:21.179Z,9.32
2022-12-22T02:46:46.504Z,9.3
2022-12-22T02:50:11.666Z,9.32
2022-12-22T02:53:36.916Z,9.3
2022-12-22T02:57:02.151Z,9.23
2022-12-22T03:00:27.386Z,9.18
2022-12-22T03:03:52.715Z,9.14
2022-12-22T03:07:17.873Z,9.1
2022-12-22T03:10:43.102Z,9.05
2022-12-22T03:14:08.342Z,9.03
2022-12-22T03:17:33.645Z,9.05
2022-12-22T03:20:58.827Z,9.01
2022-12-22T03:24:24.045Z,8.96
2022-12-22T03:27:49.281Z,8.93
2022-12-22T03:31:14.606Z,8.91
2022-12-22T03:34:39.788Z,8.9
2022-12-22T03:38:05.069Z,8.89
2022-12-22T03:41:30.279Z,8.9
2022-12-22T03:44:55.489Z,8.89
2022-12-22T03:48:20.770Z,8.86
2022-12-22T03:51:46.024Z,8.85
2022-12-22T03:55:11.291Z,8.84
2022-12-22T03:58:36.496Z,8.84
2022-12-22T04:02:01.900Z,8.85
2022-12-22T04:05:26.938Z,8.83
2022-12-22T04:08:52.198Z,8.82
2022-12-22T04:12:17.433Z,8.8
2022-12-22T04:15:42.632Z,8.8
2022-12-22T04:19:07.887Z,8.79
2022-12-22T04:22:33.120Z,8.79
2022-12-22T04:25:58.344Z,8.77
2022-12-22T04:29:23.579Z,8.76
2022-12-22T04:32:48.787Z,8.75
2022-12-22T04:36:14.056Z,8.73
2022-12-22T04:39:39.270Z,8.68
2022-12-22T04:43:04.512Z,8.67
2022-12-22T04:46:29.838Z,8.67
2022-12-22T04:49:54.951Z,8.66
2022-12-22T04:53:20.226Z,8.63
2022-12-22T04:56:45.467Z,8.62
2022-12-22T05:00:10.692Z,8.63
2022-12-22T05:03:36.085Z,8.66
2022-12-22T05:07:01.177Z,8.67
2022-12-22T05:10:26.399Z,8.66
2022-12-22T05:13:51.662Z,8.67
2022-12-22T05:17:16.926Z,8.69
2022-12-22T05:20:42.165Z,8.73
2022-12-22T05:24:07.361Z,8.72
2022-12-22T05:27:32.544Z,8.74
2022-12-22T05:30:57.857Z,8.75
2022-12-22T05:34:23.814Z,8.78
2022-12-22T05:37:49.046Z,8.81
2022-12-22T05:41:14.352Z,8.84
2022-12-22T05:44:39.602Z,8.86
2022-12-22T05:48:04.868Z,8.86
2022-12-22T05:51:30.137Z,8.86
2022-12-22T05:54:55.435Z,8.87
2022-12-22T05:58:20.760Z,8.88
2022-12-22T06:01:46.092Z,8.92
2022-12-22T06:05:11.348Z,8.92
2022-12-22T06:08:36.638Z,8.96
2022-12-22T06:12:01.952Z,8.97
2022-12-22T06:15:27.283Z,8.99
2022-12-22T06:18:52.592Z,9.01
2022-12-22T06:22:17.865Z,9.07
2022-12-22T06:25:43.170Z,9.12
2022-12-22T06:29:08.516Z,9.17
2022-12-22T06:32:33.754Z,9.23
2022-12-22T06:35:59.707Z,9.29
2022-12-22T06:39:24.398Z,9.32
2022-12-22T06:42:49.699Z,9.38
2022-12-22T06:46:15.068Z,9.42
2022-12-22T06:49:40.223Z,9.46
2022-12-22T06:53:05.454Z,9.5
2022-12-22T06:56:30.726Z,9.51
2022-12-22T06:59:57.726Z,9.54
2022-12-22T07:03:21.493Z,9.55
2022-12-22T07:06:46.509Z,9.57
2022-12-22T07:10:11.757Z,9.6
2022-12-22T07:13:37.110Z,9.6
2022-12-22T07:17:02.354Z,9.64
2022-12-22T07:20:27.624Z,9.64
2022-12-22T07:23:52.955Z,9.67
2022-12-22T07:27:18.239Z,9.71
2022-12-22T07:30:43.573Z,9.76
2022-12-22T07:34:08.891Z,9.8
2022-12-22T07:37:34.238Z,9.81
2022-12-22T07:41:04.471Z,9.82
2022-12-22T07:44:24.749Z,9.82
2022-12-22T07:47:50.055Z,9.84
2022-12-22T07:51:15.341Z,9.86
2022-12-22T07:54:42.183Z,9.91
2022-12-22T07:58:05.933Z,9.93
2022-12-22T08:01:31.356Z,9.95
2022-12-22T08:04:56.522Z,9.95
2022-12-22T08:08:21.815Z,9.96
2022-12-22T08:11:47.154Z,9.98
2022-12-22T08:15:12.357Z,10.01
2022-12-22T08:18:37.665Z,10.05
2022-12-22T08:22:02.982Z,10.07
2022-12-22T08:25:28.234Z,10.09
2022-12-22T08:28:53.589Z,10.11
2022-12-22T08:32:18.884Z,10.12
2022-12-22T08:35:44.188Z,10.14
2022-12-22T08:39:09.450Z,10.18
2022-12-22T08:42:34.745Z,10.22
2022-12-22T08:46:00.043Z,10.29
2022-12-22T08:49:25.336Z,10.37
2022-12-22T08:52:50.648Z,10.42
2022-12-22T08:56:15.954Z,10.42
2022-12-22T08:59:41.223Z,10.45
2022-12-22T09:03:06.725Z,10.46
2022-12-22T09:06:36.484Z,10.49
2022-12-22T09:09:57.083Z,10.53
2022-12-22T09:13:22.370Z,10.6
2022-12-22T09:16:47.738Z,10.64
2022-12-22T09:20:12.925Z,10.66
2022-12-22T09:23:38.196Z,10.69
2022-12-22T09:27:03.453Z,10.7
2022-12-22T09:30:28.689Z,10.71
2022-12-22T09:33:54.017Z,10.73
2022-12-22T09:37:19.321Z,10.74
2022-12-22T09:40:44.536Z,10.76
2022-12-22T09:44:09.795Z,10.75
2022-12-22T09:47:35.102Z,10.75
2022-12-22T09:51:00.320Z,10.71
2022-12-22T09:54:25.672Z,10.7
2022-12-22T09:57:50.889Z,10.69
2022-12-22T10:01:16.237Z,10.7
2022-12-22T10:04:41.513Z,10.71
2022-12-22T10:08:06.786Z,10.71
2022-12-22T10:11:32.100Z,10.72
2022-12-22T10:14:57.303Z,10.72
2022-12-22T10:18:22.600Z,10.73
2022-12-22T10:21:47.866Z,10.71
2022-12-22T10:25:13.150Z,10.69
2022-12-22T10:28:38.490Z,10.68
2022-12-22T10:32:04.035Z,10.67
2022-12-22T10:35:29.224Z,10.66
2022-12-22T10:38:54.510Z,10.69
2022-12-22T10:42:19.783Z,10.71
2022-12-22T10:45:45.091Z,10.74
2022-12-22T10:49:10.329Z,10.76
2022-12-22T10:52:35.580Z,10.81
2022-12-22T10:56:00.837Z,10.82
2022-12-22T10:59:26.095Z,10.84
2022-12-22T11:02:51.474Z,10.8
2022-12-22T11:06:16.617Z,10.81
2022-12-22T11:09:41.873Z,10.82
2022-12-22T11:13:07.147Z,10.82
2022-12-22T11:16:32.409Z,10.83
2022-12-22T11:19:57.651Z,10.87
2022-12-22T11:23:22.897Z,10.9
2022-12-22T11:26:48.188Z,10.92
2022-12-22T11:30:13.399Z,10.94
2022-12-22T11:33:38.700Z,10.98
2022-12-22T11:37:03.978Z,10.99
2022-12-22T11:40:42.271Z,11.01
2022-12-22T11:44:07.483Z,11.03
2022-12-22T11:47:34.483Z,11.04
2022-12-22T11:51:09.142Z,11.01
2022-12-22T11:54:25.704Z,10.98
2022-12-22T11:57:51.194Z,10.94
2022-12-22T12:01:22.183Z,10.92
2022-12-22T12:04:41.645Z,10.9
2022-12-22T12:08:06.901Z,10.9
2022-12-22T12:11:32.240Z,10.88
2022-12-22T12:14:57.512Z,10.91
2022-12-22T12:18:22.843Z,10.93
2022-12-22T12:21:48.158Z,10.96
2022-12-22T12:25:13.442Z,11
2022-12-22T12:28:38.718Z,11.05
2022-12-22T12:32:04.160Z,11.08
2022-12-22T12:35:29.297Z,11.08
2022-12-22T12:39:10.151Z,11.06
2022-12-22T12:42:19.918Z,11.04
2022-12-22T12:45:45.232Z,11.02
2022-12-22T12:49:10.510Z,11.01
2022-12-22T12:52:35.765Z,10.98
2022-12-22T12:56:01.072Z,10.94
2022-12-22T12:59:26.372Z,10.94
2022-12-22T13:02:51.966Z,10.94
2022-12-22T13:06:17.027Z,10.94
2022-12-22T13:09:51.157Z,10.94
2022-12-22T13:13:07.582Z,10.91
2022-12-22T13:16:32.931Z,10.9
2022-12-22T13:19:58.141Z,10.9
2022-12-22T13:23:23.404Z,10.9
2022-12-22T13:26:48.695Z,10.87
2022-12-22T13:30:14.077Z,10.86
2022-12-22T13:33:39.329Z,10.85
2022-12-22T13:37:04.666Z,10.87
2022-12-22T13:40:29.962Z,10.88
2022-12-22T13:43:55.281Z,10.86
2022-12-22T13:47:20.615Z,10.86
2022-12-22T13:50:45.891Z,10.84
2022-12-22T13:54:12.444Z,10.84
2022-12-22T13:57:36.503Z,10.87
2022-12-22T14:01:01.917Z,10.9
2022-12-22T14:04:27.275Z,10.92
2022-12-22T14:07:52.615Z,10.96
2022-12-22T14:11:17.901Z,10.99
2022-12-22T14:14:43.177Z,11.02
2022-12-22T14:18:08.463Z,11.02
2022-12-22T14:21:33.851Z,11.02
2022-12-22T14:24:59.204Z,11.02
2022-12-22T14:28:24.507Z,11.03
2022-12-22T15:04:37.818Z,8.67
2022-12-22T15:08:05.787Z,9.64
2022-12-22T15:11:28.339Z,9.88
2022-12-22T15:14:53.612Z,10.09
2022-12-22T15:18:18.844Z,10.24
2022-12-22T15:21:44.245Z,10.35
2022-12-22T15:25:09.382Z,10.44
2022-12-22T15:28:34.647Z,10.49
2022-12-22T15:31:59.950Z,10.55
2022-12-22T15:35:25.229Z,10.58
2022-12-22T15:38:50.553Z,10.61
2022-12-22T15:42:15.683Z,10.63
2022-12-22T15:45:40.900Z,10.66
2022-12-22T15:49:06.083Z,10.71
2022-12-22T15:52:31.297Z,10.77
2022-12-22T15:55:56.558Z,10.79
2022-12-22T15:59:21.698Z,10.78
2022-12-22T16:02:47.002Z,10.8
2022-12-22T16:06:12.012Z,10.79
2022-12-22T16:09:37.191Z,10.76
2022-12-22T16:13:02.419Z,10.7
2022-12-22T16:16:27.649Z,10.66
2022-12-22T16:19:52.795Z,10.62
2022-12-22T16:23:51.794Z,10.59
2022-12-22T16:28:07.125Z,10.53
2022-12-22T16:31:32.326Z,10.5
2022-12-22T16:34:57.472Z,10.52
2022-12-22T16:38:22.669Z,10.53
2022-12-22T16:41:47.875Z,10.53
2022-12-22T16:46:25.399Z,10.5
2022-12-22T16:49:50.551Z,10.5
2022-12-22T16:53:15.764Z,10.51
2022-12-22T16:56:40.959Z,10.5
2022-12-22T17:00:06.136Z,10.46
2022-12-22T17:03:31.489Z,10.42
2022-12-22T17:06:56.559Z,10.42
2022-12-22T17:10:21.732Z,10.42
2022-12-22T17:13:46.956Z,10.42
2022-12-22T17:17:12.127Z,10.39
2022-12-22T17:20:37.347Z,10.35
2022-12-22T17:24:02.883Z,10.26
2022-12-22T17:27:28.079Z,10.23
2022-12-22T17:30:53.299Z,10.24
2022-12-22T17:34:18.521Z,10.23
2022-12-22T17:37:43.785Z,10.28
2022-12-22T17:41:08.914Z,10.35
2022-12-22T17:44:34.123Z,10.38
2022-12-22T17:47:59.332Z,10.38
2022-12-22T17:51:25.671Z,10.35
2022-12-22T17:54:52.945Z,10.31
2022-12-22T17:58:18.105Z,10.25
2022-12-22T18:01:43.558Z,10.22
2022-12-22T18:05:08.665Z,10.19
2022-12-22T18:08:33.902Z,10.13
2022-12-22T18:11:59.835Z,10.11
2022-12-22T18:15:25.004Z,10.1
2022-12-22T18:18:50.225Z,10.11
2022-12-22T18:22:15.807Z,10.12
2022-12-22T18:25:41.049Z,10.12
2022-12-22T18:29:06.372Z,10.13
2022-12-22T18:36:30.842Z,10.28
2022-12-22T18:39:55.998Z,10.35
2022-12-22T18:43:21.207Z,10.4
2022-12-22T18:46:46.634Z,10.42
2022-12-22T18:50:11.691Z,10.44
2022-12-22T18:53:36.851Z,10.46
2022-12-22T18:57:02.072Z,10.44
2022-12-22T19:00:27.314Z,10.44
2022-12-22T19:03:52.683Z,10.47
2022-12-22T19:07:17.881Z,10.5
2022-12-22T19:10:43.115Z,10.53
2022-12-22T19:14:08.339Z,10.53
2022-12-22T19:17:33.557Z,10.53
2022-12-22T19:20:58.826Z,10.55
2022-12-22T19:24:24.016Z,10.48
2022-12-22T19:27:49.275Z,10.45
2022-12-22T19:31:15.464Z,10.45
2022-12-22T19:34:40.611Z,10.43
2022-12-22T19:38:05.934Z,10.46
2022-12-22T19:41:31.188Z,10.47
2022-12-22T19:44:56.399Z,10.46
2022-12-22T19:48:21.630Z,10.47
2022-12-22T19:51:46.878Z,10.45
2022-12-22T19:55:12.124Z,10.47
2022-12-22T19:58:37.304Z,10.45
2022-12-22T20:02:02.828Z,10.41
2022-12-22T20:05:27.787Z,10.38
2022-12-22T20:08:53.024Z,10.4
2022-12-22T20:12:18.302Z,10.42
2022-12-22T20:15:43.506Z,10.43
2022-12-22T20:19:08.762Z,10.42
2022-12-22T20:22:34.046Z,10.37
2022-12-22T20:25:59.278Z,10.36
2022-12-22T20:29:24.557Z,10.4
2022-12-22T20:32:49.756Z,10.42
2022-12-22T20:36:15.853Z,10.4
2022-12-22T20:39:41.139Z,10.41
2022-12-22T20:43:06.441Z,10.36
2022-12-22T20:46:31.891Z,10.33
2022-12-22T20:49:56.946Z,10.34
2022-12-22T20:53:22.156Z,10.35
2022-12-22T20:56:47.332Z,10.36
2022-12-22T21:00:12.522Z,10.39
2022-12-22T21:03:37.745Z,10.43
2022-12-22T21:07:02.861Z,10.42
2022-12-22T21:10:28.008Z,10.43
2022-12-22T21:13:53.184Z,10.47
2022-12-22T21:17:18.418Z,10.49
2022-12-22T21:20:43.570Z,10.51
2022-12-22T21:24:08.728Z,10.53
2022-12-22T21:27:33.900Z,10.53
2022-12-22T21:30:59.150Z,10.51
2022-12-22T21:34:24.238Z,10.49
2022-12-22T21:37:49.440Z,10.47
2022-12-22T21:41:14.577Z,10.41
2022-12-22T21:44:39.773Z,10.38
2022-12-22T21:48:04.923Z,10.33
2022-12-22T21:51:30.101Z,10.31
2022-12-22T21:54:55.294Z,10.31
2022-12-22T21:58:20.460Z,10.3
2022-12-22T22:01:45.823Z,10.32
2022-12-22T22:05:10.828Z,10.33
2022-12-22T22:08:36.006Z,10.33
2022-12-22T22:12:01.213Z,10.33
2022-12-22T22:15:26.419Z,10.36
2022-12-22T22:18:51.537Z,10.39
2022-12-22T22:22:16.745Z,10.43
2022-12-22T22:25:41.923Z,10.48
2022-12-22T22:29:07.100Z,10.52
2022-12-22T22:32:32.244Z,10.6
2022-12-22T22:36:02.201Z,10.65
2022-12-22T22:39:22.579Z,10.69
2022-12-22T22:42:47.756Z,10.7
2022-12-22T22:46:12.988Z,10.72
2022-12-22T22:49:38.129Z,10.77
2022-12-22T22:53:03.302Z,10.82
2022-12-22T22:56:28.463Z,10.83
2022-12-22T22:59:53.618Z,10.84
2022-12-22T23:03:18.890Z,10.84
2022-12-22T23:06:43.986Z,10.91
2022-12-22T23:10:09.150Z,10.91
2022-12-22T23:13:34.343Z,10.88
2022-12-22T23:16:59.504Z,10.82
2022-12-22T23:20:24.731Z,10.77
2022-12-22T23:23:49.886Z,10.76
2022-12-22T23:27:15.067Z,10.73
2022-12-22T23:30:40.246Z,10.71
2022-12-22T23:34:05.407Z,10.73
2022-12-22T23:37:30.633Z,10.74
2022-12-22T23:40:55.790Z,10.77
2022-12-22T23:44:20.946Z,10.77
2022-12-22T23:47:46.106Z,10.76
2022-12-22T23:51:11.287Z,10.76
2022-12-22T23:54:36.505Z,10.78
2022-12-22T23:58:01.699Z,10.77
